Time;durP1;ratioP1;P1;durP2;ratioP2;P2;SDS_P1;SDS_P2;PMS_P1;PMS_P2;Temp;Humidity;BMP_temperature;BMP_pressure;BME280_temperature;BME280_humidity;BME280_pressure;Samples;Min_cycle;Max_cycle;Signal;HPM_P1;HPM_P2
2021/10/05 04:06:29;;;;;;;;;34.50;31.00;;;;;18.87;54.46;98839.53;6631872;22;97119;-60
2021/10/05 04:09:33;;;;;;;;;31.20;29.20;;;;;18.83;54.37;98838.44;6164305;28;99707;-60
2021/10/05 04:12:36;;;;;;;;;31.20;28.80;;;;;18.83;54.25;98843.91;6160581;28;97167;-62
2021/10/05 04:15:42;;;;;;;;;33.00;30.00;;;;;18.78;54.47;98835.72;6163942;28;97225;-62
2021/10/05 04:18:45;;;;;;;;;35.00;30.00;;;;;18.74;54.45;98826.47;6162596;28;97628;-62
2021/10/05 04:21:50;;;;;;;;;33.60;30.40;;;;;18.68;54.36;98830.28;6154358;28;97696;-64
2021/10/05 04:24:53;;;;;;;;;30.00;28.00;;;;;18.66;54.40;98834.41;6159942;28;96973;-63
2021/10/05 04:27:57;;;;;;;;;31.00;28.00;;;;;18.63;54.32;98832.19;6159837;28;96554;-64
2021/10/05 04:31:00;;;;;;;;;33.00;30.20;;;;;18.61;54.48;98843.41;6155256;28;99260;-63
2021/10/05 04:34:04;;;;;;;;;32.00;30.00;;;;;18.57;54.99;98845.03;6159513;28;97502;-65
2021/10/05 04:37:08;;;;;;;;;33.60;30.00;;;;;18.57;54.75;98843.13;6163565;28;97050;-59
2021/10/05 04:40:12;;;;;;;;;31.80;30.00;;;;;18.56;54.66;98836.06;6140431;28;97859;-61
2021/10/05 04:43:16;;;;;;;;;36.00;32.00;;;;;18.57;54.68;98832.19;6160302;28;97596;-63
2021/10/05 04:46:19;;;;;;;;;33.60;28.60;;;;;18.52;55.08;98836.84;6163090;28;97000;-64
2021/10/05 04:49:22;;;;;;;;;35.00;30.75;;;;;18.50;54.78;98834.38;6141411;28;96571;-61
2021/10/05 04:52:27;;;;;;;;;30.75;29.50;;;;;18.47;54.59;98842.31;6135771;28;97912;-61
2021/10/05 04:55:30;;;;;;;;;39.80;31.40;;;;;18.46;54.79;98846.13;6145907;28;97533;-64
2021/10/05 04:58:34;;;;;;;;;31.00;29.40;;;;;18.49;54.76;98848.28;6159967;28;96676;-64
2021/10/05 05:01:37;;;;;;;;;29.80;29.00;;;;;18.54;55.08;98848.31;6136517;28;97151;-65
2021/10/05 05:04:41;;;;;;;;;33.40;28.60;;;;;18.57;54.99;98843.13;6154352;28;97421;-63
2021/10/05 05:07:45;;;;;;;;;33.40;29.80;;;;;18.63;54.90;98851.31;6162369;28;96498;-64
2021/10/05 05:10:49;;;;;;;;;34.00;30.00;;;;;18.65;54.49;98841.75;6127936;28;97777;-62
2021/10/05 05:13:52;;;;;;;;;31.40;29.40;;;;;18.67;54.38;98849.69;6151535;28;97183;-62
2021/10/05 05:16:55;;;;;;;;;31.00;29.00;;;;;18.70;54.74;98855.41;6157705;28;97732;-65
2021/10/05 05:19:59;;;;;;;;;31.40;29.40;;;;;18.77;54.42;98853.19;6137202;28;97367;-64
2021/10/05 05:23:04;;;;;;;;;33.20;29.80;;;;;18.80;54.41;98847.22;6139617;28;97588;-65
2021/10/05 05:26:07;;;;;;;;;32.60;30.00;;;;;18.89;54.35;98852.91;6155336;28;97778;-63
2021/10/05 05:29:10;;;;;;;;;32.00;30.20;;;;;18.99;54.08;98856.44;6157400;28;96810;-64
2021/10/05 05:32:14;;;;;;;;;30.40;29.40;;;;;19.06;53.94;98860.81;6142084;28;97697;-65
2021/10/05 05:35:17;;;;;;;;;33.00;31.00;;;;;19.18;53.85;98870.34;6159332;28;96996;-63
2021/10/05 05:38:23;;;;;;;;;35.00;30.00;;;;;19.30;53.51;98870.03;6161053;28;97073;-64
2021/10/05 05:41:26;;;;;;;;;30.00;28.00;;;;;19.40;53.81;98867.25;6155750;28;96914;-65
2021/10/05 05:44:30;;;;;;;;;33.60;28.40;;;;;19.55;53.77;98874.63;6160890;28;96612;-64
2021/10/05 05:47:33;;;;;;;;;29.60;27.60;;;;;19.68;53.65;98861.16;6142778;28;98251;-63
2021/10/05 05:50:36;;;;;;;;;27.00;26.00;;;;;19.85;53.30;98866.22;6138000;28;98454;-64
2021/10/05 05:53:41;;;;;;;;;29.40;28.00;;;;;20.01;53.26;98869.69;6163249;28;97010;-64
2021/10/05 05:56:44;;;;;;;;;31.60;28.80;;;;;20.21;52.52;98872.31;6145437;28;97250;-65
2021/10/05 05:59:47;;;;;;;;;29.00;28.60;;;;;20.44;52.17;98870.78;6144918;28;97382;-63
2021/10/05 06:02:51;;;;;;;;;29.00;28.00;;;;;20.61;51.40;98866.56;6162625;28;97597;-64
2021/10/05 06:05:59;;;;;;;;;27.00;26.00;;;;;20.84;50.72;98861.41;6161146;28;97518;-62
2021/10/05 06:09:04;;;;;;;;;27.25;25.50;;;;;20.98;49.97;98860.44;6158527;28;97077;-62
2021/10/05 06:12:12;;;;;;;;;26.60;24.00;;;;;20.91;49.47;98859.16;6143798;28;96437;-64
2021/10/05 06:15:17;;;;;;;;;28.00;26.00;;;;;21.09;49.60;98861.13;6159198;28;96717;-61
2021/10/05 06:18:25;;;;;;;;;28.60;26.20;;;;;21.17;49.00;98858.59;6162774;28;96594;-61
2021/10/05 06:21:28;;;;;;;;;28.00;26.00;;;;;21.50;49.03;98853.28;6160882;28;98022;-63
2021/10/05 06:24:33;;;;;;;;;26.40;24.80;;;;;21.91;47.85;98868.09;6162624;28;96373;-60
2021/10/05 06:27:37;;;;;;;;;26.40;24.40;;;;;22.36;46.41;98861.13;6144592;28;97726;-61
2021/10/05 06:30:40;;;;;;;;;27.00;25.00;;;;;22.81;45.73;98845.84;6157688;28;97571;-62
2021/10/05 06:33:43;;;;;;;;;31.00;28.60;;;;;23.35;44.53;98858.00;6161888;28;96572;-61
2021/10/05 06:36:46;;;;;;;;;29.00;25.00;;;;;24.47;42.58;98851.69;6144736;28;97225;-61
2021/10/05 06:39:51;;;;;;;;;25.00;23.00;;;;;26.01;38.95;98844.38;6140868;28;96861;-63
2021/10/05 06:42:55;;;;;;;;;27.00;25.00;;;;;27.75;36.14;98847.25;6148585;28;97324;-60
2021/10/05 06:45:59;;;;;;;;;25.00;23.00;;;;;28.49;34.13;98852.09;6161984;28;97454;-63
2021/10/05 06:49:02;;;;;;;;;25.60;24.00;;;;;28.66;34.02;98849.16;6162585;28;97479;-61
2021/10/05 06:52:06;;;;;;;;;27.40;25.40;;;;;29.07;33.31;98851.03;6156999;28;98191;-61
2021/10/05 06:55:11;;;;;;;;;26.50;23.00;;;;;30.21;31.83;98844.41;6162214;28;97148;-62
2021/10/05 06:58:15;;;;;;;;;25.00;24.00;;;;;31.65;29.62;98839.22;6143925;28;97753;-60
2021/10/05 07:01:18;;;;;;;;;25.20;22.20;;;;;32.77;27.45;98846.84;6154619;28;97070;-60
2021/10/05 07:04:22;;;;;;;;;22.50;22.00;;;;;34.02;26.23;98836.59;6143880;28;97844;-60
2021/10/05 07:07:25;;;;;;;;;22.50;20.00;;;;;34.91;24.87;98836.56;6159219;28;97439;-60
2021/10/05 07:10:30;;;;;;;;;22.00;20.00;;;;;35.39;24.41;98831.03;6145767;28;97775;-63
2021/10/05 07:13:34;;;;;;;;;24.00;21.00;;;;;35.64;23.60;98832.03;6140391;28;97862;-63
2021/10/05 07:16:40;;;;;;;;;23.60;21.00;;;;;35.76;23.42;98828.94;6161698;28;96642;-63
2021/10/05 07:19:44;;;;;;;;;18.00;18.00;;;;;36.05;22.70;98832.72;6143733;28;96834;-64
2021/10/05 07:22:47;;;;;;;;;23.00;20.25;;;;;36.29;22.82;98834.88;6154360;28;98111;-63
2021/10/05 07:25:52;;;;;;;;;21.50;19.50;;;;;36.69;22.59;98831.06;6165006;28;96672;-64
2021/10/05 07:28:55;;;;;;;;;21.60;19.20;;;;;36.68;22.28;98826.63;6154378;28;97402;-65
2021/10/05 07:31:59;;;;;;;;;21.00;19.00;;;;;36.70;22.10;98845.91;6162294;28;96645;-64
2021/10/05 07:35:02;;;;;;;;;20.00;19.40;;;;;36.79;22.19;98835.09;6160560;28;97468;-60
2021/10/05 07:38:06;;;;;;;;;20.60;19.40;;;;;37.06;22.06;98835.53;6147532;28;97443;-66
2021/10/05 07:41:11;;;;;;;;;21.80;18.80;;;;;37.20;21.64;98827.94;6160690;28;98154;-65
2021/10/05 07:44:14;;;;;;;;;22.00;21.00;;;;;37.36;21.88;98823.94;6164290;28;97162;-62
2021/10/05 07:47:18;;;;;;;;;19.80;18.80;;;;;37.51;21.27;98831.97;6163903;28;97528;-64
2021/10/05 07:50:22;;;;;;;;;20.60;20.00;;;;;37.48;21.43;98829.97;6161582;28;98203;-66
2021/10/05 07:53:25;;;;;;;;;23.60;21.00;;;;;37.24;22.05;98823.13;6140703;28;96623;-66
2021/10/05 07:56:30;;;;;;;;;20.00;19.00;;;;;37.36;21.67;98829.56;6164039;28;97466;-63
2021/10/05 07:59:33;;;;;;;;;21.25;20.00;;;;;37.49;21.62;98820.31;6163902;28;96508;-64
2021/10/05 08:02:40;;;;;;;;;20.40;18.40;;;;;37.54;21.38;98810.69;6157754;28;96584;-64
2021/10/05 08:05:44;;;;;;;;;19.80;18.80;;;;;37.53;22.37;98823.97;6163195;28;97449;-61
2021/10/05 08:08:48;;;;;;;;;22.00;20.40;;;;;37.62;21.24;98815.94;6159710;28;97036;-65
2021/10/05 08:11:53;;;;;;;;;21.00;19.00;;;;;37.69;21.85;98817.91;6128498;28;98695;-65
2021/10/05 08:14:56;;;;;;;;;21.00;20.00;;;;;37.85;21.61;98803.41;6152644;28;96566;-62
2021/10/05 08:18:00;;;;;;;;;19.00;18.00;;;;;37.85;22.07;98807.03;6146034;28;97206;-62
2021/10/05 08:21:04;;;;;;;;;19.80;18.00;;;;;37.85;21.54;98801.41;6151661;28;98109;-63
2021/10/05 08:24:07;;;;;;;;;18.00;16.00;;;;;37.76;22.37;98805.84;6163140;28;97536;-65
2021/10/05 08:27:12;;;;;;;;;18.67;16.67;;;;;38.02;21.92;98814.63;6163391;28;97137;-63
2021/10/05 08:30:17;;;;;;;;;23.40;20.00;;;;;38.21;21.89;98798.50;6162469;28;97497;-65
2021/10/05 08:33:20;;;;;;;;;17.00;16.00;;;;;38.45;20.89;98798.44;6162052;28;97526;-63
2021/10/05 08:36:24;;;;;;;;;19.00;18.00;;;;;38.69;21.57;98802.31;6163253;28;97474;-63
2021/10/05 08:39:27;;;;;;;;;17.00;16.00;;;;;38.74;20.39;98795.44;6152351;28;97033;-63
2021/10/05 08:42:32;;;;;;;;;19.00;17.00;;;;;38.67;20.88;98806.75;6162538;28;97437;-63
2021/10/05 08:45:36;;;;;;;;;19.00;17.00;;;;;38.69;21.18;98801.50;6163096;28;97468;-65
2021/10/05 08:48:41;;;;;;;;;14.60;14.60;;;;;38.56;20.94;98799.16;6163138;28;96459;-64
2021/10/05 08:51:44;;;;;;;;;15.40;14.40;;;;;38.54;20.86;98789.53;6157328;28;96803;-64
2021/10/05 08:54:48;;;;;;;;;18.00;17.00;;;;;38.88;21.19;98795.38;6162632;28;97155;-65
2021/10/05 08:58:05;;;;;;;;;17.00;16.20;;;;;39.16;20.20;98792.34;6162837;28;97437;-62
2021/10/05 09:01:10;;;;;;;;;18.00;16.00;;;;;39.48;20.16;98794.13;6137872;28;98225;-63
2021/10/05 09:04:14;;;;;;;;;15.80;15.00;;;;;39.64;20.33;98785.88;6162912;28;97245;-63
2021/10/05 09:07:19;;;;;;;;;17.00;16.00;;;;;39.51;20.19;98791.28;6124951;28;96875;-63
2021/10/05 09:10:24;;;;;;;;;16.00;14.40;;;;;39.63;20.47;98787.13;6155190;28;96788;-64
2021/10/05 09:13:32;;;;;;;;;16.00;16.00;;;;;39.72;20.05;98796.72;6162743;28;96570;-64
2021/10/05 09:16:36;;;;;;;;;16.00;16.00;;;;;39.86;19.39;98795.78;6163928;28;97480;-64
2021/10/05 09:19:39;;;;;;;;;13.40;13.00;;;;;40.05;20.18;98789.50;6144725;28;100152;-61
2021/10/05 09:22:42;;;;;;;;;16.20;15.00;;;;;40.21;19.58;98788.94;6164693;28;96581;-61
2021/10/05 09:25:48;;;;;;;;;16.00;14.00;;;;;40.23;19.17;98790.13;6163640;28;97575;-63
2021/10/05 09:28:52;;;;;;;;;13.00;12.60;;;;;40.30;19.52;98788.44;6163712;28;97599;-62
2021/10/05 09:31:59;;;;;;;;;15.00;14.00;;;;;40.41;19.26;98789.09;6161985;28;97472;-63
2021/10/05 09:35:03;;;;;;;;;16.00;15.00;;;;;40.55;19.36;98784.06;6163722;28;97607;-62
2021/10/05 09:38:11;;;;;;;;;16.00;14.20;;;;;40.60;19.33;98782.78;6144086;28;99547;-65
2021/10/05 09:41:14;;;;;;;;;12.00;12.00;;;;;40.74;19.43;98785.44;6152521;28;97310;-62
2021/10/05 09:44:25;;;;;;;;;14.00;13.00;;;;;40.87;18.75;98788.47;6161674;28;96545;-62
2021/10/05 09:47:38;;;;;;;;;16.00;13.00;;;;;40.91;18.84;98775.88;6145742;28;98021;-64
2021/10/05 09:50:41;;;;;;;;;15.00;14.00;;;;;41.04;19.27;98776.13;6141565;28;97495;-64
2021/10/05 09:53:45;;;;;;;;;14.80;13.80;;;;;41.01;18.92;98759.94;6162684;28;96529;-63
2021/10/05 09:56:50;;;;;;;;;15.00;14.00;;;;;40.78;18.97;98760.72;6163238;28;96591;-63
2021/10/05 09:59:55;;;;;;;;;13.60;12.60;;;;;40.69;19.06;98760.47;6161302;28;97496;-64
2021/10/05 10:02:59;;;;;;;;;15.00;15.00;;;;;40.52;19.74;98750.19;6154575;28;96622;-64
2021/10/05 10:06:04;;;;;;;;;13.80;12.80;;;;;40.65;19.37;98751.25;6173263;28;97036;-62
2021/10/05 10:09:08;;;;;;;;;15.00;15.00;;;;;40.71;19.80;98741.06;6186665;28;97479;-65
2021/10/05 10:12:12;;;;;;;;;12.00;12.00;;;;;40.97;19.28;98750.72;6185669;28;97206;-62
2021/10/05 10:15:18;;;;;;;;;14.60;13.40;;;;;40.70;19.87;98745.13;6187145;28;97278;-64
2021/10/05 10:18:22;;;;;;;;;13.40;13.00;;;;;40.62;19.40;98750.06;6187350;28;96887;-62
2021/10/05 10:21:28;;;;;;;;;14.00;13.40;;;;;40.75;19.70;98741.81;6168166;28;97375;-63
2021/10/05 10:24:43;;;;;;;;;15.00;14.40;;;;;40.96;19.84;98737.81;6187044;28;97453;-61
2021/10/05 10:27:47;;;;;;;;;15.00;15.00;;;;;41.28;19.93;98726.00;6174140;28;96623;-64
2021/10/05 10:30:55;;;;;;;;;16.00;14.00;;;;;41.39;19.14;98724.59;6184199;28;97526;-64
2021/10/05 10:33:58;;;;;;;;;13.25;12.25;;;;;41.55;18.85;98720.25;6167908;28;98867;-61
2021/10/05 10:37:10;;;;;;;;;15.40;15.00;;;;;41.70;18.89;98719.56;6186226;28;97064;-63
2021/10/05 10:40:17;;;;;;;;;14.25;14.00;;;;;41.67;19.00;98723.28;6168894;28;97106;-64
2021/10/05 10:43:22;;;;;;;;;15.00;14.00;;;;;41.58;19.17;98725.88;6176596;28;96538;-63
2021/10/05 10:46:31;;;;;;;;;16.00;14.60;;;;;41.38;19.30;98719.34;6186885;28;97651;-64
2021/10/05 10:49:34;;;;;;;;;13.00;13.00;;;;;40.82;19.24;98721.88;6186293;28;97001;-63
2021/10/05 10:52:41;;;;;;;;;15.50;15.00;;;;;40.78;19.73;98711.88;6165919;28;98152;-61
2021/10/05 10:55:47;;;;;;;;;16.20;16.00;;;;;40.83;19.32;98706.53;6163889;28;97080;-62
2021/10/05 10:58:50;;;;;;;;;13.00;13.00;;;;;40.50;19.63;98691.28;6175919;28;97122;-63
2021/10/05 11:02:00;;;;;;;;;15.00;14.00;;;;;40.55;19.67;98692.81;6176421;28;97253;-63
2021/10/05 11:05:04;;;;;;;;;16.40;15.40;;;;;40.32;19.71;98684.31;6178976;28;96620;-64
2021/10/05 11:08:10;;;;;;;;;13.00;13.00;;;;;39.70;20.24;98665.69;6175449;28;97099;-63
2021/10/05 11:11:20;;;;;;;;;12.60;12.00;;;;;39.51;20.36;98669.16;6179634;28;96696;-62
2021/10/05 11:14:26;;;;;;;;;12.20;11.20;;;;;39.47;21.05;98669.19;6175516;28;96647;-62
2021/10/05 11:17:35;;;;;;;;;16.00;13.40;;;;;39.71;20.39;98650.38;6174257;28;97353;-59
2021/10/05 11:20:43;;;;;;;;;13.40;12.40;;;;;39.82;20.38;98648.25;6177340;28;97284;-64
2021/10/05 11:23:47;;;;;;;;;11.00;11.00;;;;;39.49;19.74;98646.22;6158416;28;100389;-60
2021/10/05 11:26:52;;;;;;;;;12.60;11.60;;;;;38.76;20.56;98640.81;6176089;28;97563;-59
2021/10/05 11:30:01;;;;;;;;;13.40;13.00;;;;;38.82;20.86;98642.78;6177238;28;97188;-61
2021/10/05 11:33:06;;;;;;;;;12.00;11.80;;;;;39.04;20.55;98637.81;6178620;28;97148;-61
2021/10/05 11:36:14;;;;;;;;;13.00;11.50;;;;;38.90;20.69;98630.25;6161166;28;97970;-61
2021/10/05 11:39:25;;;;;;;;;11.80;11.00;;;;;38.90;20.02;98638.72;6176613;28;97585;-62
2021/10/05 11:42:29;;;;;;;;;14.00;12.00;;;;;38.93;20.77;98631.47;6176294;28;98191;-61
2021/10/05 11:45:32;;;;;;;;;12.00;12.00;;;;;39.16;20.25;98625.97;6176621;28;97495;-60
2021/10/05 11:48:41;;;;;;;;;14.80;13.20;;;;;39.20;20.49;98626.72;6176120;28;96747;-59
2021/10/05 11:51:45;;;;;;;;;13.00;12.40;;;;;39.49;20.30;98626.47;6177192;28;96700;-62
2021/10/05 11:54:50;;;;;;;;;14.00;12.00;;;;;39.11;20.00;98629.25;6175304;28;97521;-61
2021/10/05 11:57:58;;;;;;;;;12.40;12.00;;;;;38.98;19.64;98622.56;6177214;28;96568;-62
2021/10/05 12:01:12;;;;;;;;;13.00;13.00;;;;;38.98;19.94;98620.53;6175107;28;96542;-62
2021/10/05 12:04:17;;;;;;;;;12.00;12.00;;;;;38.99;20.71;98619.31;6174745;28;98320;-61
2021/10/05 12:07:22;;;;;;;;;12.80;12.00;;;;;38.96;21.11;98610.88;6155848;28;97262;-61
2021/10/05 12:10:28;;;;;;;;;14.00;13.00;;;;;38.61;20.49;98599.94;6176604;28;97463;-63
2021/10/05 12:13:31;;;;;;;;;14.00;13.00;;;;;38.54;19.93;98595.94;6171936;28;96559;-63
2021/10/05 12:16:34;;;;;;;;;14.33;12.33;;;;;38.11;20.89;98591.84;6174227;28;97433;-62
2021/10/05 12:19:42;;;;;;;;;20.40;17.80;;;;;37.11;21.34;98593.44;6177199;28;97363;-60
2021/10/05 12:22:48;;;;;;;;;14.40;13.00;;;;;36.58;22.02;98583.03;6173539;28;98068;-62
2021/10/05 12:25:51;;;;;;;;;14.00;13.00;;;;;36.04;22.02;98590.59;6174511;28;96605;-61
2021/10/05 12:28:57;;;;;;;;;16.00;13.40;;;;;35.55;22.51;98604.44;6176467;28;97472;-62
2021/10/05 12:32:02;;;;;;;;;15.60;15.00;;;;;35.08;23.49;98577.34;6173640;28;96894;-63
2021/10/05 12:35:20;;;;;;;;;15.20;14.60;;;;;34.96;23.77;98589.69;6174026;28;97572;-60
2021/10/05 12:38:24;;;;;;;;;13.00;12.50;;;;;34.55;24.00;98580.56;6172416;28;98151;-61
2021/10/05 12:41:28;;;;;;;;;14.50;14.00;;;;;34.67;24.57;98587.84;6172345;28;96807;-60
2021/10/05 12:44:34;;;;;;;;;14.00;13.40;;;;;34.18;25.53;98575.06;6172555;28;97535;-61
2021/10/05 12:47:37;;;;;;;;;15.60;15.00;;;;;34.11;24.64;98577.75;6175008;28;97579;-61
2021/10/05 12:50:46;;;;;;;;;16.25;15.00;;;;;33.74;25.00;98577.78;6175029;28;96590;-62
2021/10/05 12:53:51;;;;;;;;;16.00;15.00;;;;;33.55;25.06;98566.75;6156784;28;96581;-60
2021/10/05 12:56:54;;;;;;;;;17.40;15.00;;;;;33.51;25.46;98563.91;6176064;28;96598;-61
2021/10/05 12:59:57;;;;;;;;;19.00;17.00;;;;;33.71;25.29;98560.97;6177747;28;98069;-61
2021/10/05 13:03:01;;;;;;;;;15.60;15.00;;;;;33.48;25.34;98558.25;6164426;28;97635;-62
2021/10/05 13:06:07;;;;;;;;;16.50;15.00;;;;;33.23;25.87;98563.56;6174425;28;97129;-60
2021/10/05 13:09:14;;;;;;;;;16.20;14.00;;;;;33.16;26.23;98554.28;6175879;28;96590;-60
2021/10/05 13:12:17;;;;;;;;;15.00;14.00;;;;;32.68;26.03;98551.19;6166923;28;96622;-61
2021/10/05 13:15:20;;;;;;;;;13.00;12.67;;;;;32.32;26.51;98547.00;6172937;28;97522;-62
2021/10/05 13:18:24;;;;;;;;;14.40;14.40;;;;;31.78;26.76;98536.88;6154929;28;96906;-62
2021/10/05 13:21:29;;;;;;;;;13.00;13.00;;;;;31.48;26.54;98549.78;6170355;28;97477;-61
2021/10/05 13:24:32;;;;;;;;;13.80;13.00;;;;;31.26;27.73;98550.53;6174416;28;97402;-62
2021/10/05 13:27:36;;;;;;;;;12.80;12.00;;;;;31.08;27.47;98544.63;6179928;28;98069;-62
2021/10/05 13:30:39;;;;;;;;;14.00;13.75;;;;;31.18;27.92;98544.00;6186929;28;96972;-61
2021/10/05 13:33:42;;;;;;;;;13.00;12.00;;;;;31.08;27.95;98541.81;6186042;28;98137;-62
2021/10/05 13:36:47;;;;;;;;;13.80;13.40;;;;;31.12;28.18;98541.91;6173060;28;96959;-59
2021/10/05 13:39:54;;;;;;;;;13.00;13.00;;;;;31.30;27.77;98551.41;6141024;28;97960;-60
2021/10/05 13:42:58;;;;;;;;;13.00;12.00;;;;;31.28;27.57;98553.75;6162921;28;96746;-62
2021/10/05 13:46:01;;;;;;;;;11.00;11.00;;;;;31.03;27.77;98542.13;6179427;28;96681;-62
2021/10/05 13:49:04;;;;;;;;;14.50;13.00;;;;;30.94;27.97;98541.47;6176781;28;97482;-60
2021/10/05 13:52:09;;;;;;;;;13.50;13.00;;;;;30.48;28.21;98541.22;6173967;28;96776;-62
2021/10/05 13:55:14;;;;;;;;;12.80;12.00;;;;;30.57;28.61;98545.78;6185603;28;97080;-62
2021/10/05 13:58:17;;;;;;;;;12.60;12.00;;;;;30.71;28.00;98534.97;6159307;28;97579;-61
2021/10/05 14:01:20;;;;;;;;;11.20;11.00;;;;;30.64;28.45;98538.44;6186358;28;96753;-63
2021/10/05 14:04:24;;;;;;;;;13.00;12.60;;;;;30.48;29.06;98549.59;6166256;28;96681;-63
2021/10/05 14:07:28;;;;;;;;;13.75;12.00;;;;;30.65;28.35;98551.16;6166846;28;97209;-61
2021/10/05 14:10:32;;;;;;;;;14.00;13.00;;;;;30.79;29.14;98553.47;6166988;28;99609;-60
2021/10/05 14:13:35;;;;;;;;;13.40;12.00;;;;;30.95;27.78;98546.66;6165049;28;96911;-62
2021/10/05 14:16:39;;;;;;;;;13.00;11.40;;;;;31.14;27.70;98553.44;6182592;28;97969;-63
2021/10/05 14:19:44;;;;;;;;;13.50;11.00;;;;;30.86;28.08;98554.44;6167263;28;96694;-61
2021/10/05 14:22:48;;;;;;;;;12.00;11.00;;;;;30.81;28.04;98554.72;6184907;28;98202;-61
2021/10/05 14:25:52;;;;;;;;;12.75;12.00;;;;;30.66;28.22;98566.69;6184606;28;96820;-62
2021/10/05 14:28:56;;;;;;;;;14.00;12.00;;;;;30.74;28.55;98560.09;6180966;28;96853;-61
2021/10/05 14:31:59;;;;;;;;;11.40;11.40;;;;;30.58;28.14;98559.34;6184176;28;97571;-60
2021/10/05 14:35:02;;;;;;;;;13.00;12.00;;;;;30.43;28.11;98568.47;6180718;28;96714;-60
2021/10/05 14:38:07;;;;;;;;;13.80;12.60;;;;;30.31;28.26;98555.47;6183040;28;96928;-62
2021/10/05 14:41:12;;;;;;;;;11.60;11.00;;;;;29.96;28.68;98554.56;6179876;28;97317;-62
2021/10/05 14:44:15;;;;;;;;;11.50;11.00;;;;;30.02;28.18;98545.63;6165979;28;98100;-62
2021/10/05 14:47:18;;;;;;;;;12.00;12.00;;;;;29.99;28.42;98542.75;6173374;28;97064;-60
2021/10/05 14:50:22;;;;;;;;;13.00;12.00;;;;;29.46;28.81;98533.78;6181054;28;96741;-63
2021/10/05 14:53:26;;;;;;;;;12.00;11.00;;;;;29.29;29.15;98532.06;6184554;28;97437;-62
2021/10/05 14:56:29;;;;;;;;;12.80;12.00;;;;;28.98;29.46;98537.47;6166885;28;96620;-61
2021/10/05 14:59:33;;;;;;;;;11.60;11.60;;;;;28.87;30.17;98532.78;6184927;28;97503;-62
2021/10/05 15:02:39;;;;;;;;;11.00;10.33;;;;;28.63;30.67;98531.66;6184887;28;97122;-61
2021/10/05 15:05:42;;;;;;;;;11.00;11.00;;;;;28.50;30.45;98541.13;6164336;28;97468;-60
2021/10/05 15:08:47;;;;;;;;;11.00;10.00;;;;;28.05;30.58;98518.25;6184892;28;97355;-63
2021/10/05 15:11:50;;;;;;;;;11.50;10.25;;;;;27.53;30.90;98527.94;6181744;28;96793;-62
2021/10/05 15:14:54;;;;;;;;;11.00;11.00;;;;;27.43;31.31;98519.22;6182077;28;96944;-60
2021/10/05 15:17:58;;;;;;;;;10.40;10.00;;;;;27.17;31.49;98525.81;6179633;28;96852;-62
2021/10/05 15:21:01;;;;;;;;;11.00;11.00;;;;;26.76;31.92;98538.81;6178233;28;97008;-63
2021/10/05 15:24:06;;;;;;;;;10.00;10.00;;;;;26.87;31.93;98526.25;6177630;28;96694;-62
2021/10/05 15:27:09;;;;;;;;;12.75;11.00;;;;;26.73;31.70;98534.78;6179714;28;97434;-63
2021/10/05 15:30:29;;;;;;;;;13.00;11.00;;;;;26.74;31.80;98542.72;6165564;28;96913;-63
2021/10/05 15:33:32;;;;;;;;;10.20;9.80;;;;;26.73;31.58;98545.84;6173134;28;97231;-63
2021/10/05 15:36:36;;;;;;;;;12.00;10.00;;;;;26.76;31.42;98556.22;6183699;28;97557;-62
2021/10/05 15:39:41;;;;;;;;;12.00;10.00;;;;;26.62;31.30;98550.16;6184978;28;97554;-61
2021/10/05 15:42:44;;;;;;;;;12.00;11.00;;;;;26.43;32.03;98553.34;6181293;28;96476;-61
2021/10/05 15:45:47;;;;;;;;;12.00;12.00;;;;;26.14;32.05;98540.31;6166762;28;96980;-61
2021/10/05 15:48:51;;;;;;;;;14.60;13.00;;;;;26.05;32.37;98553.31;6188118;28;97263;-61
2021/10/05 15:52:00;;;;;;;;;14.80;13.80;;;;;25.84;32.93;98553.25;6171022;28;96434;-61
2021/10/05 15:55:06;;;;;;;;;12.00;12.00;;;;;25.75;32.92;98548.91;6190446;28;96638;-62
2021/10/05 15:58:09;;;;;;;;;12.00;12.00;;;;;25.43;33.70;98556.56;6189335;28;97549;-61
2021/10/05 16:01:12;;;;;;;;;12.80;11.80;;;;;25.37;33.83;98546.00;6179568;28;96575;-63
2021/10/05 16:04:16;;;;;;;;;13.60;12.60;;;;;25.36;33.58;98536.13;6181515;28;96680;-62
2021/10/05 16:07:20;;;;;;;;;12.50;11.00;;;;;25.10;34.12;98538.91;6158922;28;96814;-60
2021/10/05 16:10:24;;;;;;;;;13.00;12.00;;;;;24.91;34.37;98550.25;6183198;28;97109;-60
2021/10/05 16:13:29;;;;;;;;;14.40;13.00;;;;;25.06;34.41;98564.69;6179453;28;97659;-62
2021/10/05 16:16:34;;;;;;;;;12.00;12.00;;;;;24.82;35.10;98557.69;6171288;28;100155;-62
2021/10/05 16:19:38;;;;;;;;;13.00;13.00;;;;;24.53;35.52;98560.22;6184680;28;97271;-63
2021/10/05 16:22:41;;;;;;;;;13.00;12.00;;;;;24.38;35.65;98564.25;6185516;28;96576;-60
2021/10/05 16:25:49;;;;;;;;;13.00;12.00;;;;;24.25;36.25;98562.41;6165159;28;96705;-61
2021/10/05 16:28:53;;;;;;;;;12.00;12.00;;;;;24.36;35.79;98576.69;6188925;28;98188;-64
2021/10/05 16:31:56;;;;;;;;;14.00;14.00;;;;;24.43;35.40;98577.88;6183141;28;96767;-62
2021/10/05 16:34:59;;;;;;;;;15.00;14.00;;;;;24.40;35.76;98564.72;6185847;28;96583;-62
2021/10/05 16:38:02;;;;;;;;;16.00;13.00;;;;;24.29;35.78;98576.38;6184444;28;98345;-63
2021/10/05 16:41:07;;;;;;;;;12.60;12.00;;;;;24.26;35.63;98572.28;6184449;28;97467;-64
2021/10/05 16:44:11;;;;;;;;;13.60;13.00;;;;;24.06;35.68;98587.41;6188791;28;97528;-61
2021/10/05 16:47:14;;;;;;;;;15.00;13.00;;;;;23.76;36.07;98582.72;6187210;28;96678;-63
2021/10/05 16:50:18;;;;;;;;;16.00;14.00;;;;;23.99;35.48;98584.31;6167722;28;97043;-61
2021/10/05 16:53:21;;;;;;;;;15.40;14.00;;;;;23.79;35.88;98590.34;6174391;28;97444;-61
2021/10/05 16:56:25;;;;;;;;;14.33;14.00;;;;;23.82;36.23;98599.91;6182457;28;97541;-60
2021/10/05 16:59:29;;;;;;;;;13.75;12.75;;;;;23.72;36.24;98604.56;6170634;28;97664;-62
2021/10/05 17:02:32;;;;;;;;;14.40;13.00;;;;;23.57;36.59;98601.38;6187736;28;97331;-63
2021/10/05 17:05:35;;;;;;;;;15.00;14.00;;;;;23.56;36.88;98608.00;6164079;28;96715;-61
2021/10/05 17:08:39;;;;;;;;;15.33;14.00;;;;;23.48;37.04;98593.06;6166040;28;99740;-62
2021/10/05 17:11:43;;;;;;;;;17.00;15.00;;;;;23.58;36.71;98597.50;6173255;28;96636;-62
2021/10/05 17:14:47;;;;;;;;;16.00;15.00;;;;;23.52;37.08;98594.06;6180800;28;97668;-63
2021/10/05 17:17:50;;;;;;;;;17.00;15.40;;;;;23.36;37.67;98609.25;6181664;28;97179;-61
2021/10/05 17:20:53;;;;;;;;;15.00;14.80;;;;;23.35;37.23;98604.91;6185612;28;97318;-63
2021/10/05 17:23:56;;;;;;;;;17.00;15.60;;;;;23.34;37.31;98608.78;6184573;28;97494;-62
2021/10/05 17:27:01;;;;;;;;;14.00;12.75;;;;;23.08;37.53;98611.31;6186052;28;96810;-61
2021/10/05 17:30:07;;;;;;;;;16.00;15.40;;;;;23.10;37.71;98614.56;6178083;28;96772;-58
2021/10/05 17:33:11;;;;;;;;;15.00;13.00;;;;;22.94;37.94;98606.97;6169946;28;96876;-61
2021/10/05 17:36:14;;;;;;;;;16.00;15.00;;;;;23.08;37.70;98608.56;6186888;28;96769;-61
2021/10/05 17:39:18;;;;;;;;;16.00;14.20;;;;;23.12;37.72;98615.06;6186841;28;96592;-61
2021/10/05 17:42:23;;;;;;;;;19.00;18.00;;;;;23.08;38.05;98616.00;6163956;28;97473;-62
2021/10/05 17:45:26;;;;;;;;;17.00;16.00;;;;;22.94;38.49;98616.03;6180098;28;97533;-59
2021/10/05 17:48:29;;;;;;;;;18.40;16.00;;;;;22.87;37.89;98605.44;6183831;28;97091;-59
2021/10/05 17:51:32;;;;;;;;;15.60;15.00;;;;;22.86;38.18;98611.28;6186774;28;97457;-65
2021/10/05 17:54:36;;;;;;;;;16.00;14.00;;;;;22.63;38.29;98601.28;6181955;28;97203;-64
2021/10/05 17:57:41;;;;;;;;;15.00;13.00;;;;;22.73;37.66;98609.34;6186884;28;96824;-60
2021/10/05 18:00:44;;;;;;;;;16.40;14.40;;;;;22.73;38.03;98601.09;6186933;28;97406;-63
2021/10/05 18:03:47;;;;;;;;;14.00;12.00;;;;;22.71;37.74;98598.69;6166985;28;98465;-60
2021/10/05 18:06:50;;;;;;;;;15.40;13.40;;;;;22.46;38.42;98602.72;6182358;28;97199;-62
2021/10/05 18:09:54;;;;;;;;;15.00;14.00;;;;;22.50;38.27;98594.69;6181541;28;98297;-62
2021/10/05 18:13:00;;;;;;;;;14.00;13.00;;;;;22.40;38.48;98584.72;6184315;28;97614;-60